createdAt,value
2023-01-03T00:00:19.354Z,11.66
2023-01-03T00:01:18.902Z,11.78
2023-01-03T00:02:19.083Z,11.68
2023-01-03T00:03:19.202Z,11.65
2023-01-03T00:04:19.490Z,11.7
2023-01-03T00:05:19.213Z,11.69
2023-01-03T00:06:19.008Z,11.72
2023-01-03T00:07:19.270Z,11.65
2023-01-03T00:08:19.303Z,11.69
2023-01-03T00:09:19.050Z,11.73
2023-01-03T00:10:19.077Z,11.65
2023-01-03T00:11:19.359Z,11.65
2023-01-03T00:12:19.369Z,11.68
2023-01-03T00:13:19.395Z,11.6
2023-01-03T00:14:19.127Z,11.59
2023-01-03T00:15:19.422Z,11.62
2023-01-03T00:16:19.697Z,11.51
2023-01-03T00:17:19.671Z,11.59
2023-01-03T00:18:19.449Z,11.57
2023-01-03T00:19:18.951Z,11.59
2023-01-03T00:20:19.487Z,11.6
2023-01-03T00:21:19.488Z,11.52
2023-01-03T00:22:19.272Z,11.51
2023-01-03T00:23:19.532Z,11.55
2023-01-03T00:24:19.576Z,11.51
2023-01-03T00:25:19.565Z,11.55
2023-01-03T00:26:19.599Z,11.51
2023-01-03T00:27:19.345Z,11.55
2023-01-03T00:28:19.618Z,11.54
2023-01-03T00:29:19.773Z,11.66
2023-01-03T00:30:19.698Z,11.6
2023-01-03T00:31:19.521Z,11.57
2023-01-03T00:32:19.824Z,11.55
2023-01-03T00:33:19.697Z,11.57
2023-01-03T00:34:19.734Z,11.6
2023-01-03T00:35:19.729Z,11.63
2023-01-03T00:36:19.488Z,11.51
2023-01-03T00:37:19.759Z,11.57
2023-01-03T00:38:19.535Z,11.54
2023-01-03T00:39:19.805Z,11.6
2023-01-03T00:40:19.673Z,11.57
2023-01-03T00:41:19.837Z,11.57
2023-01-03T00:42:19.586Z,11.54
2023-01-03T00:43:19.356Z,11.55
2023-01-03T00:44:19.620Z,11.54
2023-01-03T00:45:29.913Z,11.5
2023-01-03T00:46:19.967Z,11.51
2023-01-03T00:47:19.926Z,11.54
2023-01-03T00:48:19.984Z,11.52
2023-01-03T00:49:19.686Z,11.51
2023-01-03T00:50:20.432Z,11.54
2023-01-03T00:51:19.753Z,11.52
2023-01-03T00:52:20.002Z,11.52
2023-01-03T00:53:20.072Z,11.52
2023-01-03T00:54:20.074Z,11.57
2023-01-03T00:55:20.062Z,11.5
2023-01-03T00:56:20.094Z,11.5
2023-01-03T00:57:19.834Z,11.51
2023-01-03T00:58:20.121Z,11.51
2023-01-03T00:59:20.112Z,11.51
2023-01-03T01:00:19.906Z,11.55
2023-01-03T01:01:20.595Z,11.45
2023-01-03T01:02:20.866Z,11.51
2023-01-03T01:03:21.058Z,11.54
2023-01-03T01:04:20.255Z,11.52
2023-01-03T01:05:19.965Z,11.51
2023-01-03T01:06:20.303Z,11.48
2023-01-03T01:07:20.284Z,11.51
2023-01-03T01:08:20.270Z,11.48
2023-01-03T01:09:20.239Z,11.47
2023-01-03T01:10:20.310Z,11.5
2023-01-03T01:11:20.311Z,11.47
2023-01-03T01:12:20.366Z,11.5
2023-01-03T01:13:20.344Z,11.44
2023-01-03T01:14:20.522Z,11.45
2023-01-03T01:15:20.127Z,11.48
2023-01-03T01:16:20.633Z,11.52
2023-01-03T01:17:27.032Z,11.48
2023-01-03T01:18:20.435Z,11.45
2023-01-03T01:19:20.491Z,11.44
2023-01-03T01:20:20.469Z,11.37
2023-01-03T01:21:20.233Z,11.5
2023-01-03T01:22:20.487Z,11.45
2023-01-03T01:23:20.498Z,11.36
2023-01-03T01:24:22.539Z,11.43
2023-01-03T01:25:20.539Z,11.41
2023-01-03T01:26:20.311Z,11.35
2023-01-03T01:27:20.572Z,11.5
2023-01-03T01:28:20.611Z,11.44
2023-01-03T01:29:20.347Z,11.4
2023-01-03T01:30:20.639Z,11.43
2023-01-03T01:31:20.906Z,11.41
2023-01-03T01:32:20.131Z,11.36
2023-01-03T01:33:20.691Z,11.43
2023-01-03T01:34:20.404Z,11.47
2023-01-03T01:35:20.441Z,11.4
2023-01-03T01:36:20.737Z,11.47
2023-01-03T01:37:20.212Z,11.43
2023-01-03T01:38:20.760Z,11.4
2023-01-03T01:39:20.806Z,11.47
2023-01-03T01:40:20.512Z,11.37
2023-01-03T01:41:20.842Z,11.41
2023-01-03T01:42:31.358Z,11.33
2023-01-03T01:43:20.569Z,11.4
2023-01-03T01:44:20.955Z,11.41
2023-01-03T01:45:20.890Z,11.33
2023-01-03T01:46:21.058Z,11.41
2023-01-03T01:47:20.895Z,11.45
2023-01-03T01:48:20.902Z,11.35
2023-01-03T01:49:20.694Z,11.44
2023-01-03T01:50:21.441Z,11.25
2023-01-03T01:51:20.955Z,11.32
2023-01-03T01:52:21.004Z,11.37
2023-01-03T01:53:20.988Z,11.3
2023-01-03T01:54:20.492Z,11.4
2023-01-03T01:55:20.786Z,11.32
2023-01-03T01:56:21.082Z,11.32
2023-01-03T01:57:21.087Z,11.36
2023-01-03T01:58:21.094Z,11.36
2023-01-03T01:59:21.088Z,11.32
2023-01-03T02:00:21.130Z,11.35
2023-01-03T02:01:21.330Z,11.33
2023-01-03T02:02:21.510Z,11.32
2023-01-03T02:03:21.578Z,11.35
2023-01-03T02:04:21.173Z,11.37
2023-01-03T02:05:21.246Z,11.3
2023-01-03T02:06:20.959Z,11.3
2023-01-03T02:07:21.207Z,11.29
2023-01-03T02:08:21.259Z,11.32
2023-01-03T02:09:21.012Z,11.3
2023-01-03T02:10:21.278Z,11.32
2023-01-03T02:11:21.315Z,11.26
2023-01-03T02:12:21.383Z,11.29
2023-01-03T02:13:21.310Z,11.25
2023-01-03T02:14:21.334Z,11.26
2023-01-03T02:15:21.367Z,11.23
2023-01-03T02:16:21.674Z,11.23
2023-01-03T02:17:21.131Z,11.33
2023-01-03T02:18:21.151Z,11.26
2023-01-03T02:19:21.156Z,11.23
2023-01-03T02:20:21.145Z,11.19
2023-01-03T02:21:25.071Z,11.17
2023-01-03T02:22:21.221Z,11.15
2023-01-03T02:23:21.511Z,11.14
2023-01-03T02:24:21.504Z,11.19
2023-01-03T02:25:21.246Z,11.22
2023-01-03T02:26:21.320Z,11.18
2023-01-03T02:27:21.298Z,11.08
2023-01-03T02:28:21.566Z,11.14
2023-01-03T02:29:21.594Z,11.11
2023-01-03T02:30:21.332Z,11.12
2023-01-03T02:31:21.921Z,11.12
2023-01-03T02:32:21.767Z,11.15
2023-01-03T02:33:21.369Z,11.12
2023-01-03T02:34:21.652Z,11.12
2023-01-03T02:35:21.672Z,11.07
2023-01-03T02:36:21.716Z,11.1
2023-01-03T02:37:21.480Z,11.11
2023-01-03T02:38:21.711Z,11.08
2023-01-03T02:39:28.244Z,11.14
2023-01-03T02:40:21.489Z,11.05
2023-01-03T02:41:21.811Z,11
2023-01-03T02:42:21.786Z,11.02
2023-01-03T02:43:21.797Z,11.05
2023-01-03T02:44:21.799Z,10.99
2023-01-03T02:45:21.846Z,11
2023-01-03T02:46:22.000Z,11.02
2023-01-03T02:47:21.862Z,10.97
2023-01-03T02:48:21.915Z,11.08
2023-01-03T02:49:21.626Z,11.04
2023-01-03T02:50:21.713Z,10.94
2023-01-03T02:51:21.923Z,11.02
2023-01-03T02:52:21.959Z,10.99
2023-01-03T02:53:21.996Z,10.97
2023-01-03T02:54:21.990Z,11.04
2023-01-03T02:55:22.025Z,11.05
2023-01-03T02:56:22.018Z,11.04
2023-01-03T02:57:21.765Z,11
2023-01-03T02:58:21.780Z,10.99
2023-01-03T02:59:22.059Z,10.99
2023-01-03T03:00:22.075Z,10.96
2023-01-03T03:01:22.507Z,10.89
2023-01-03T03:02:22.598Z,10.99
2023-01-03T03:03:22.705Z,10.94
2023-01-03T03:04:21.919Z,10.94
2023-01-03T03:05:22.796Z,10.87
2023-01-03T03:06:22.189Z,10.96
2023-01-03T03:07:22.361Z,10.92
2023-01-03T03:08:21.944Z,10.89
2023-01-03T03:09:22.751Z,10.92
2023-01-03T03:10:22.689Z,10.99
2023-01-03T03:11:22.266Z,10.89
2023-01-03T03:12:22.279Z,10.84
2023-01-03T03:13:22.264Z,10.92
2023-01-03T03:14:22.305Z,10.81
2023-01-03T03:15:22.295Z,10.9
2023-01-03T03:16:22.650Z,10.9
2023-01-03T03:17:22.375Z,10.82
2023-01-03T03:18:21.832Z,10.93
2023-01-03T03:19:22.132Z,10.9
2023-01-03T03:20:22.421Z,10.87
2023-01-03T03:21:22.403Z,10.89
2023-01-03T03:22:22.428Z,10.93
2023-01-03T03:23:22.192Z,10.89
2023-01-03T03:24:22.200Z,10.86
2023-01-03T03:25:22.491Z,10.81
2023-01-03T03:26:22.228Z,10.86
2023-01-03T03:27:22.532Z,10.76
2023-01-03T03:28:22.537Z,10.78
2023-01-03T03:29:22.544Z,10.81
2023-01-03T03:30:22.313Z,10.81
2023-01-03T03:31:22.840Z,10.81
2023-01-03T03:32:22.587Z,10.81
2023-01-03T03:33:22.408Z,10.78
2023-01-03T03:34:22.360Z,10.84
2023-01-03T03:35:22.363Z,10.81
2023-01-03T03:36:22.495Z,10.75
2023-01-03T03:37:22.681Z,10.76
2023-01-03T03:38:22.688Z,10.82
2023-01-03T03:39:22.711Z,10.84
2023-01-03T03:40:22.716Z,10.79
2023-01-03T03:41:22.855Z,10.75
2023-01-03T03:42:22.842Z,10.81
2023-01-03T03:43:22.800Z,10.82
2023-01-03T03:44:22.776Z,10.82
2023-01-03T03:45:23.168Z,10.78
2023-01-03T03:46:22.935Z,10.75
2023-01-03T03:47:22.914Z,10.76
2023-01-03T03:48:22.844Z,10.72
2023-01-03T03:49:22.852Z,10.76
2023-01-03T03:50:22.868Z,10.72
2023-01-03T03:51:22.625Z,10.68
2023-01-03T03:52:22.941Z,10.81
2023-01-03T03:53:22.936Z,10.81
2023-01-03T03:54:22.941Z,10.72
2023-01-03T03:55:22.690Z,10.71
2023-01-03T03:56:22.975Z,10.71
2023-01-03T03:57:23.012Z,10.72
2023-01-03T03:58:23.016Z,10.71
2023-01-03T03:59:23.063Z,10.74
2023-01-03T04:00:23.022Z,10.75
2023-01-03T04:01:23.348Z,10.74
2023-01-03T04:02:23.612Z,10.71
2023-01-03T04:03:23.167Z,10.69
2023-01-03T04:04:23.095Z,10.68
2023-01-03T04:05:23.215Z,10.72
2023-01-03T04:06:23.149Z,10.64
2023-01-03T04:07:23.157Z,10.63
2023-01-03T04:08:23.186Z,10.64
2023-01-03T04:09:23.178Z,10.63
2023-01-03T04:10:23.206Z,10.61
2023-01-03T04:11:23.219Z,10.67
2023-01-03T04:12:22.964Z,10.68
2023-01-03T04:13:23.258Z,10.63
2023-01-03T04:14:23.466Z,10.63
2023-01-03T04:15:23.047Z,10.64
2023-01-03T04:16:23.641Z,10.68
2023-01-03T04:17:23.343Z,10.67
2023-01-03T04:18:23.348Z,10.67
2023-01-03T04:19:22.852Z,10.61
2023-01-03T04:20:23.358Z,10.67
2023-01-03T04:21:25.964Z,10.56
2023-01-03T04:22:23.381Z,10.64
2023-01-03T04:23:23.402Z,10.68
2023-01-03T04:24:23.174Z,10.63
2023-01-03T04:25:23.223Z,10.6
2023-01-03T04:26:23.181Z,10.67
2023-01-03T04:27:23.457Z,10.57
2023-01-03T04:28:23.492Z,10.63
2023-01-03T04:29:23.508Z,10.56
2023-01-03T04:30:23.560Z,10.57
2023-01-03T04:31:23.796Z,10.6
2023-01-03T04:32:23.541Z,10.48
2023-01-03T04:33:23.561Z,10.51
2023-01-03T04:34:23.592Z,10.49
2023-01-03T04:35:23.059Z,10.51
2023-01-03T04:36:23.353Z,10.49
2023-01-03T04:37:23.363Z,10.48
2023-01-03T04:38:23.641Z,10.53
2023-01-03T04:39:23.645Z,10.51
2023-01-03T04:40:23.548Z,10.51
2023-01-03T04:41:23.730Z,10.53
2023-01-03T04:42:23.725Z,10.44
2023-01-03T04:43:23.542Z,10.54
2023-01-03T04:44:23.481Z,10.54
2023-01-03T04:45:23.565Z,10.53
2023-01-03T04:46:24.119Z,10.49
2023-01-03T04:47:23.807Z,10.4
2023-01-03T04:48:23.614Z,10.49
2023-01-03T04:49:23.554Z,10.44
2023-01-03T04:50:23.563Z,10.48
2023-01-03T04:51:23.844Z,10.49
2023-01-03T04:52:23.860Z,10.42
2023-01-03T04:53:23.378Z,10.44
2023-01-03T04:54:23.875Z,10.46
2023-01-03T04:55:23.919Z,10.46
2023-01-03T04:56:23.714Z,10.44
2023-01-03T04:57:23.939Z,10.46
2023-01-03T04:58:23.701Z,10.48
2023-01-03T04:59:23.701Z,10.44
2023-01-03T05:00:23.725Z,10.4
2023-01-03T05:01:24.383Z,10.48
2023-01-03T05:02:24.122Z,10.46
2023-01-03T05:03:32.418Z,10.44
2023-01-03T05:04:24.239Z,10.46
2023-01-03T05:05:24.261Z,10.44
2023-01-03T05:06:24.078Z,10.33
2023-01-03T05:07:24.113Z,10.42
2023-01-03T05:08:24.109Z,10.41
2023-01-03T05:09:24.128Z,10.4
2023-01-03T05:10:23.889Z,10.42
2023-01-03T05:11:23.910Z,10.42
2023-01-03T05:12:23.942Z,10.38
2023-01-03T05:13:24.182Z,10.41
2023-01-03T05:14:24.214Z,10.34
2023-01-03T05:15:24.217Z,10.48
2023-01-03T05:16:24.444Z,10.38
2023-01-03T05:17:24.331Z,10.35
2023-01-03T05:18:24.261Z,10.44
2023-01-03T05:19:24.394Z,10.28
2023-01-03T05:20:24.293Z,10.31
2023-01-03T05:21:24.323Z,10.4
2023-01-03T05:22:24.067Z,10.38
2023-01-03T05:23:24.085Z,10.3
2023-01-03T05:24:24.350Z,10.37
2023-01-03T05:25:24.381Z,10.42
2023-01-03T05:26:24.163Z,10.4
2023-01-03T05:27:24.411Z,10.34
2023-01-03T05:28:24.454Z,10.34
2023-01-03T05:29:24.462Z,10.35
2023-01-03T05:30:24.457Z,10.33
2023-01-03T05:31:24.751Z,10.34
2023-01-03T05:32:24.930Z,10.28
2023-01-03T05:33:24.274Z,10.26
2023-01-03T05:34:24.541Z,10.26
2023-01-03T05:35:24.682Z,10.28
2023-01-03T05:36:24.551Z,10.31
2023-01-03T05:37:24.574Z,10.26
2023-01-03T05:38:24.580Z,10.34
2023-01-03T05:39:24.588Z,10.33
2023-01-03T05:40:24.606Z,10.33
2023-01-03T05:41:24.631Z,10.2
2023-01-03T05:42:24.404Z,10.19
2023-01-03T05:43:24.650Z,10.28
2023-01-03T05:44:24.543Z,10.28
2023-01-03T05:45:24.420Z,10.23
2023-01-03T05:46:24.918Z,10.26
2023-01-03T05:47:24.884Z,10.22
2023-01-03T05:48:24.737Z,10.17
2023-01-03T05:49:24.778Z,10.16
2023-01-03T05:50:24.776Z,10.16
2023-01-03T05:51:24.810Z,10.16
2023-01-03T05:52:24.808Z,10.17
2023-01-03T05:53:24.888Z,10.15
2023-01-03T05:54:25.206Z,10.2
2023-01-03T05:55:25.066Z,10.15
2023-01-03T05:56:24.863Z,10.22
2023-01-03T05:57:24.907Z,10.17
2023-01-03T05:58:25.081Z,10.17
2023-01-03T05:59:24.904Z,10.25
2023-01-03T06:00:24.696Z,10.15
2023-01-03T06:01:24.923Z,10.13
2023-01-03T06:02:25.267Z,10.1
2023-01-03T06:03:24.751Z,10.13
2023-01-03T06:04:25.102Z,10.05
2023-01-03T06:05:25.465Z,10.07
2023-01-03T06:06:25.022Z,10.12
2023-01-03T06:07:24.826Z,10.16
2023-01-03T06:08:25.175Z,10.12
2023-01-03T06:09:25.064Z,10.09
2023-01-03T06:10:24.883Z,10.1
2023-01-03T06:11:25.090Z,10.09
2023-01-03T06:12:25.124Z,10.1
2023-01-03T06:13:24.883Z,10.02
2023-01-03T06:14:24.898Z,10.15
2023-01-03T06:15:25.217Z,10.09
2023-01-03T06:16:29.981Z,10.12
2023-01-03T06:17:25.511Z,10.1
2023-01-03T06:18:24.952Z,10.05
2023-01-03T06:19:24.964Z,10.05
2023-01-03T06:20:24.996Z,10.02
2023-01-03T06:21:25.289Z,10.09
2023-01-03T06:22:25.010Z,10.09
2023-01-03T06:23:25.077Z,10.04
2023-01-03T06:24:25.309Z,9.99
2023-01-03T06:25:25.311Z,10.01
2023-01-03T06:26:25.347Z,9.98
2023-01-03T06:27:25.365Z,9.99
2023-01-03T06:28:25.359Z,10.05
2023-01-03T06:29:25.399Z,9.99
2023-01-03T06:30:25.450Z,9.89
2023-01-03T06:31:25.561Z,9.94
2023-01-03T06:32:25.222Z,9.95
2023-01-03T06:33:25.203Z,9.87
2023-01-03T06:34:25.443Z,9.87
2023-01-03T06:35:25.241Z,9.98
2023-01-03T06:36:25.231Z,10.01
2023-01-03T06:37:25.297Z,9.91
2023-01-03T06:38:25.539Z,9.97
2023-01-03T06:39:25.579Z,9.92
2023-01-03T06:40:27.893Z,9.99
2023-01-03T06:41:25.311Z,9.89
2023-01-03T06:42:25.394Z,10.01
2023-01-03T06:43:25.329Z,9.91
2023-01-03T06:44:25.364Z,9.95
2023-01-03T06:45:25.649Z,9.89
2023-01-03T06:46:25.891Z,9.91
2023-01-03T06:47:25.662Z,9.97
2023-01-03T06:48:25.711Z,9.95
2023-01-03T06:49:25.706Z,9.94
2023-01-03T06:50:25.433Z,9.87
2023-01-03T06:51:25.477Z,10.01
2023-01-03T06:52:25.487Z,9.98
2023-01-03T06:53:25.780Z,9.86
2023-01-03T06:54:25.813Z,9.95
2023-01-03T06:55:25.820Z,9.95
2023-01-03T06:56:25.835Z,9.84
2023-01-03T06:57:31.864Z,9.98
2023-01-03T06:58:25.574Z,9.92
2023-01-03T06:59:25.852Z,9.94
2023-01-03T07:00:25.867Z,10.01
2023-01-03T07:01:26.059Z,9.98
2023-01-03T07:02:26.402Z,10.01
2023-01-03T07:03:25.917Z,9.97
2023-01-03T07:04:26.335Z,10.04
2023-01-03T07:05:26.181Z,10.04
2023-01-03T07:06:25.958Z,10.01
2023-01-03T07:07:26.025Z,9.99
2023-01-03T07:08:25.999Z,9.99
2023-01-03T07:09:26.009Z,10.01
2023-01-03T07:10:26.011Z,10.05
2023-01-03T07:11:26.074Z,10.02
2023-01-03T07:12:26.052Z,10.02
2023-01-03T07:13:26.092Z,10.05
2023-01-03T07:14:25.561Z,10.01
2023-01-03T07:15:26.091Z,9.94
2023-01-03T07:16:25.923Z,9.97
2023-01-03T07:17:26.143Z,9.94
2023-01-03T07:18:26.157Z,9.91
2023-01-03T07:19:25.903Z,9.89
2023-01-03T07:20:26.206Z,9.91
2023-01-03T07:21:25.964Z,9.95
2023-01-03T07:22:26.233Z,10.02
2023-01-03T07:23:25.996Z,9.94
2023-01-03T07:24:26.265Z,9.91
2023-01-03T07:25:26.300Z,9.97
2023-01-03T07:26:26.257Z,9.89
2023-01-03T07:27:26.296Z,9.97
2023-01-03T07:28:26.056Z,10.01
2023-01-03T07:29:26.309Z,9.94
2023-01-03T07:30:26.325Z,9.99
2023-01-03T07:31:26.604Z,9.89
2023-01-03T07:32:26.376Z,9.89
2023-01-03T07:33:26.124Z,9.84
2023-01-03T07:34:26.404Z,9.91
2023-01-03T07:35:26.438Z,9.84
2023-01-03T07:36:26.283Z,9.84
2023-01-03T07:37:26.454Z,9.86
2023-01-03T07:38:26.458Z,9.82
2023-01-03T07:39:26.480Z,9.89
2023-01-03T07:40:26.221Z,9.86
2023-01-03T07:41:26.580Z,9.76
2023-01-03T07:42:26.540Z,9.76
2023-01-03T07:43:26.565Z,9.79
2023-01-03T07:44:26.292Z,9.79
2023-01-03T07:45:26.569Z,9.76
2023-01-03T07:46:26.946Z,9.8
2023-01-03T07:47:26.593Z,9.79
2023-01-03T07:48:26.611Z,9.79
2023-01-03T07:49:26.370Z,9.77
2023-01-03T07:50:26.767Z,9.8
2023-01-03T07:51:26.669Z,9.77
2023-01-03T07:52:26.458Z,9.72
2023-01-03T07:53:26.442Z,9.74
2023-01-03T07:54:26.460Z,9.69
2023-01-03T07:55:26.739Z,9.66
2023-01-03T07:56:26.788Z,9.68
2023-01-03T07:57:26.816Z,9.77
2023-01-03T07:58:26.796Z,9.65
2023-01-03T07:59:26.794Z,9.65
2023-01-03T08:00:26.845Z,9.66
2023-01-03T08:01:27.535Z,9.72
2023-01-03T08:02:27.234Z,9.72
2023-01-03T08:03:26.842Z,9.73
2023-01-03T08:04:26.855Z,9.72
2023-01-03T08:05:26.926Z,9.73
2023-01-03T08:06:26.930Z,9.68
2023-01-03T08:07:26.923Z,9.65
2023-01-03T08:08:27.023Z,9.65
2023-01-03T08:09:26.943Z,9.74
2023-01-03T08:10:26.740Z,9.69
2023-01-03T08:11:26.976Z,9.72
2023-01-03T08:12:26.731Z,9.72
2023-01-03T08:13:27.020Z,9.72
2023-01-03T08:14:31.475Z,9.74
2023-01-03T08:15:26.781Z,9.76
2023-01-03T08:16:27.004Z,9.62
2023-01-03T08:17:27.073Z,9.62
2023-01-03T08:18:26.908Z,9.66
2023-01-03T08:19:26.876Z,9.69
2023-01-03T08:20:27.115Z,9.74
2023-01-03T08:21:27.125Z,9.68
2023-01-03T08:22:26.874Z,9.68
2023-01-03T08:23:27.184Z,9.68
2023-01-03T08:24:27.212Z,9.72
2023-01-03T08:25:26.930Z,9.66
2023-01-03T08:26:27.185Z,9.72
2023-01-03T08:27:27.013Z,9.66
2023-01-03T08:28:26.964Z,9.66
2023-01-03T08:29:27.287Z,9.66
2023-01-03T08:30:27.312Z,9.65
2023-01-03T08:31:27.465Z,9.64
2023-01-03T08:32:27.042Z,9.51
2023-01-03T08:33:27.309Z,9.58
2023-01-03T08:34:34.555Z,9.61
2023-01-03T08:35:27.343Z,9.68
2023-01-03T08:36:27.377Z,9.61
2023-01-03T08:37:27.122Z,9.58
2023-01-03T08:38:27.417Z,9.61
2023-01-03T08:39:27.397Z,9.54
2023-01-03T08:40:27.186Z,9.62
2023-01-03T08:41:27.463Z,9.61
2023-01-03T08:42:27.440Z,9.54
2023-01-03T08:43:27.203Z,9.59
2023-01-03T08:44:27.510Z,9.54
2023-01-03T08:45:27.529Z,9.56
2023-01-03T08:46:27.690Z,9.56
2023-01-03T08:47:27.527Z,9.56
2023-01-03T08:48:27.557Z,9.61
2023-01-03T08:49:27.584Z,9.54
2023-01-03T08:50:27.405Z,9.56
2023-01-03T08:51:27.595Z,9.58
2023-01-03T08:52:35.377Z,9.64
2023-01-03T08:53:27.627Z,9.56
2023-01-03T08:54:27.622Z,9.56
2023-01-03T08:55:27.654Z,9.54
2023-01-03T08:56:27.435Z,9.56
2023-01-03T08:57:27.675Z,9.58
2023-01-03T08:58:27.706Z,9.56
2023-01-03T08:59:27.475Z,9.55
2023-01-03T09:00:27.637Z,9.59
2023-01-03T09:01:28.328Z,9.61
2023-01-03T09:02:28.596Z,9.54
2023-01-03T09:03:28.391Z,9.54
2023-01-03T09:04:27.817Z,9.56
2023-01-03T09:05:28.407Z,9.58
2023-01-03T09:06:27.821Z,9.59
2023-01-03T09:07:27.895Z,9.55
2023-01-03T09:08:27.581Z,9.55
2023-01-03T09:09:27.878Z,9.54
2023-01-03T09:10:27.916Z,9.5
2023-01-03T09:11:27.895Z,9.51
2023-01-03T09:12:27.958Z,9.56
2023-01-03T09:13:27.927Z,9.54
2023-01-03T09:14:27.943Z,9.56
2023-01-03T09:15:27.975Z,9.56
2023-01-03T09:16:28.243Z,9.5
2023-01-03T09:17:27.762Z,9.59
2023-01-03T09:18:28.055Z,9.62
2023-01-03T09:19:28.026Z,9.54
2023-01-03T09:20:28.274Z,9.55
2023-01-03T09:21:28.071Z,9.51
2023-01-03T09:22:28.071Z,9.58
2023-01-03T09:23:28.083Z,9.51
2023-01-03T09:24:28.133Z,9.58
2023-01-03T09:25:31.777Z,9.56
2023-01-03T09:26:28.137Z,9.61
2023-01-03T09:27:28.162Z,9.55
2023-01-03T09:28:27.963Z,9.61
2023-01-03T09:29:28.190Z,9.54
2023-01-03T09:30:28.198Z,9.51
2023-01-03T09:31:29.279Z,9.56
2023-01-03T09:32:28.243Z,9.59
2023-01-03T09:33:28.269Z,9.47
2023-01-03T09:34:28.296Z,9.54
2023-01-03T09:35:28.130Z,9.51
2023-01-03T09:36:28.296Z,9.55
2023-01-03T09:37:28.305Z,9.51
2023-01-03T09:38:27.794Z,9.51
2023-01-03T09:39:28.320Z,9.59
2023-01-03T09:40:28.077Z,9.59
2023-01-03T09:41:28.363Z,9.55
2023-01-03T09:42:28.383Z,9.56
2023-01-03T09:43:30.593Z,9.58
2023-01-03T09:44:28.419Z,9.47
2023-01-03T09:45:28.434Z,9.55
2023-01-03T09:46:28.306Z,9.51
2023-01-03T09:47:28.319Z,9.54
2023-01-03T09:48:28.202Z,9.55
2023-01-03T09:49:28.508Z,9.48
2023-01-03T09:51:24.150Z,9.48
2023-01-03T09:51:37.860Z,9.55
2023-01-03T09:52:38.101Z,9.48
2023-01-03T09:53:38.125Z,9.5
2023-01-03T09:54:38.143Z,9.48
2023-01-03T09:55:37.912Z,9.47
2023-01-03T09:56:38.179Z,9.51
2023-01-03T09:57:38.197Z,9.41
2023-01-03T09:58:38.194Z,9.51
2023-01-03T09:59:38.082Z,9.44
2023-01-03T10:00:38.400Z,9.41
2023-01-03T10:01:38.834Z,9.41
2023-01-03T10:02:38.829Z,9.44
2023-01-03T10:03:39.617Z,9.46
2023-01-03T10:04:38.332Z,9.46
2023-01-03T10:05:38.711Z,9.43
2023-01-03T10:06:38.402Z,9.39
2023-01-03T10:07:38.407Z,9.5
2023-01-03T10:08:38.473Z,9.39
2023-01-03T10:09:38.456Z,9.37
2023-01-03T10:10:38.411Z,9.41
2023-01-03T10:11:38.471Z,9.44
2023-01-03T10:12:38.436Z,9.4
2023-01-03T10:13:38.183Z,9.37
2023-01-03T10:14:38.462Z,9.37
2023-01-03T10:15:38.229Z,9.44
2023-01-03T10:16:38.477Z,9.4
2023-01-03T10:17:38.501Z,9.47
2023-01-03T10:18:38.263Z,9.4
2023-01-03T10:19:38.267Z,9.44
2023-01-03T10:20:38.610Z,9.44
2023-01-03T10:21:38.560Z,9.4
2023-01-03T10:22:38.651Z,9.32
2023-01-03T10:23:38.592Z,9.37
2023-01-03T10:24:38.631Z,9.32
2023-01-03T10:25:38.641Z,9.36
2023-01-03T10:26:38.122Z,9.41
2023-01-03T10:27:38.656Z,9.44
2023-01-03T10:28:38.668Z,9.43
2023-01-03T10:29:38.166Z,9.46
2023-01-03T10:30:38.693Z,9.41
2023-01-03T10:31:38.908Z,9.44
2023-01-03T10:32:38.719Z,9.34
2023-01-03T10:33:38.484Z,9.36
2023-01-03T10:34:38.753Z,9.37
2023-01-03T10:35:38.772Z,9.44
2023-01-03T10:36:38.803Z,9.39
2023-01-03T10:37:38.809Z,9.37
2023-01-03T10:38:54.392Z,9.43
2023-01-03T10:39:40.610Z,9.41
2023-01-03T10:40:38.596Z,9.44
2023-01-03T10:41:38.633Z,9.44
2023-01-03T10:42:38.367Z,9.41
2023-01-03T10:43:38.924Z,9.36
2023-01-03T10:44:38.923Z,9.39
2023-01-03T10:45:52.065Z,9.41
2023-01-03T10:46:39.202Z,9.39
2023-01-03T10:47:38.718Z,9.48
2023-01-03T10:49:29.237Z,9.39
2023-01-03T10:49:39.645Z,9.5
2023-01-03T10:50:39.670Z,9.47
2023-01-03T10:51:47.589Z,9.44
2023-01-03T10:52:39.719Z,9.43
2023-01-03T10:53:39.722Z,9.44
2023-01-03T10:54:39.756Z,9.43
2023-01-03T10:55:39.774Z,9.41
2023-01-03T10:56:39.761Z,9.43
2023-01-03T10:57:39.791Z,9.43
2023-01-03T10:58:45.629Z,9.5
2023-01-03T10:59:39.878Z,9.46
2023-01-03T11:00:39.843Z,9.4
2023-01-03T11:01:40.425Z,9.5
2023-01-03T11:02:40.695Z,9.47
2023-01-03T11:03:40.081Z,9.44
2023-01-03T11:04:39.669Z,9.44
2023-01-03T11:05:40.387Z,9.54
2023-01-03T11:06:39.924Z,9.5
2023-01-03T11:07:39.952Z,9.43
2023-01-03T11:08:39.995Z,9.44
2023-01-03T11:09:39.951Z,9.5
2023-01-03T11:10:40.030Z,9.54
2023-01-03T11:11:40.064Z,9.5
2023-01-03T11:12:39.772Z,9.4
2023-01-03T11:13:40.057Z,9.47
2023-01-03T11:14:40.086Z,9.37
2023-01-03T11:15:43.705Z,9.41
2023-01-03T11:16:40.081Z,9.47
2023-01-03T11:17:39.821Z,9.46
2023-01-03T11:18:40.084Z,9.5
2023-01-03T11:19:40.159Z,9.56
2023-01-03T11:20:40.133Z,9.54
2023-01-03T11:21:40.143Z,9.5
2023-01-03T11:22:42.493Z,9.54
2023-01-03T11:23:40.180Z,9.51
2023-01-03T11:24:40.213Z,9.58
2023-01-03T11:25:40.212Z,9.64
2023-01-03T11:26:40.285Z,9.58
2023-01-03T11:27:40.525Z,9.55
2023-01-03T11:28:40.255Z,9.55
2023-01-03T11:29:40.267Z,9.56
2023-01-03T11:30:40.414Z,9.56
2023-01-03T11:31:40.405Z,9.51
2023-01-03T11:32:40.349Z,9.66
2023-01-03T11:33:40.708Z,9.51
2023-01-03T11:35:26.725Z,9.73
2023-01-03T11:35:40.143Z,9.68
2023-01-03T11:36:40.447Z,9.65
2023-01-03T11:37:40.450Z,9.76
2023-01-03T11:38:40.204Z,9.68
2023-01-03T11:39:40.477Z,9.79
2023-01-03T11:40:40.456Z,9.68
2023-01-03T11:41:40.466Z,9.64
2023-01-03T11:42:40.264Z,9.72
2023-01-03T11:43:40.515Z,9.68
2023-01-03T11:44:40.239Z,9.73
2023-01-03T11:45:48.995Z,9.66
2023-01-03T11:46:40.795Z,9.73
2023-01-03T11:47:40.551Z,9.69
2023-01-03T11:48:40.562Z,9.79
2023-01-03T11:49:40.602Z,9.73
2023-01-03T11:50:40.612Z,9.73
2023-01-03T11:51:40.346Z,9.72
2023-01-03T11:52:40.626Z,9.82
2023-01-03T11:53:40.710Z,9.73
2023-01-03T11:54:40.681Z,9.79
2023-01-03T11:55:40.686Z,9.76
2023-01-03T11:56:40.771Z,9.76
2023-01-03T11:57:40.706Z,9.76
2023-01-03T11:58:40.766Z,9.79
2023-01-03T11:59:40.753Z,9.76
2023-01-03T12:00:40.518Z,9.83
2023-01-03T12:01:44.741Z,9.76
2023-01-03T12:02:41.045Z,9.76
2023-01-03T12:03:41.304Z,9.84
2023-01-03T12:04:41.012Z,9.74
2023-01-03T12:05:40.939Z,9.76
2023-01-03T12:06:40.639Z,9.79
2023-01-03T12:07:55.911Z,9.83
2023-01-03T12:08:40.905Z,9.73
2023-01-03T12:09:40.635Z,9.84
2023-01-03T12:10:40.926Z,9.74
2023-01-03T12:11:40.659Z,9.77
2023-01-03T12:12:40.965Z,9.76
2023-01-03T12:13:40.956Z,9.8
2023-01-03T12:14:41.054Z,9.77
2023-01-03T12:15:41.142Z,9.74
2023-01-03T12:16:41.247Z,9.76
2023-01-03T12:17:41.015Z,9.8
2023-01-03T12:18:40.778Z,9.83
2023-01-03T12:19:41.081Z,9.82
2023-01-03T12:20:40.789Z,9.76
2023-01-03T12:21:40.823Z,9.76
2023-01-03T12:22:41.116Z,9.76
2023-01-03T12:23:40.935Z,9.86
2023-01-03T12:24:41.158Z,9.83
2023-01-03T12:25:41.141Z,9.87
2023-01-03T12:26:41.150Z,9.76
2023-01-03T12:27:41.209Z,9.82
2023-01-03T12:28:41.236Z,9.92
2023-01-03T12:29:41.207Z,9.86
2023-01-03T12:30:41.258Z,9.86
2023-01-03T12:31:41.404Z,9.84
2023-01-03T12:32:41.263Z,9.91
2023-01-03T12:33:41.325Z,9.86
2023-01-03T12:34:41.278Z,9.84
2023-01-03T12:35:41.315Z,9.86
2023-01-03T12:36:41.392Z,9.86
2023-01-03T12:37:41.388Z,9.92
2023-01-03T12:38:41.133Z,9.83
2023-01-03T12:39:41.723Z,9.94
2023-01-03T12:40:41.124Z,9.91
2023-01-03T12:41:41.513Z,9.91
2023-01-03T12:42:41.130Z,9.91
2023-01-03T12:43:41.431Z,9.91
2023-01-03T12:44:41.503Z,9.84
2023-01-03T12:45:43.638Z,9.91
2023-01-03T12:46:41.993Z,9.91
2023-01-03T12:47:41.509Z,9.91
2023-01-03T12:48:41.518Z,9.91
2023-01-03T12:49:41.531Z,9.87
2023-01-03T12:50:41.542Z,9.84
2023-01-03T12:51:41.323Z,9.94
2023-01-03T12:52:41.581Z,9.8
2023-01-03T12:53:41.340Z,9.94
2023-01-03T12:54:41.615Z,9.87
2023-01-03T12:55:41.625Z,9.86
2023-01-03T12:56:41.376Z,9.86
2023-01-03T12:57:41.634Z,9.86
2023-01-03T12:58:44.540Z,9.89
2023-01-03T12:59:41.734Z,9.91
2023-01-03T13:00:41.707Z,9.92
2023-01-03T13:01:42.239Z,9.86
2023-01-03T13:02:42.329Z,9.87
2023-01-03T13:03:41.870Z,9.94
2023-01-03T13:04:41.748Z,9.87
2023-01-03T13:05:42.246Z,9.91
2023-01-03T13:06:41.773Z,9.84
2023-01-03T13:07:41.529Z,9.94